sensor_id;sensor_type;location;lat;lon;timestamp;temperature;humidity
997;DHT22;487;50.126;8.698;2022-08-19T00:01:56;23.30;99.90
997;DHT22;487;50.126;8.698;2022-08-19T00:04:27;23.30;99.90
997;DHT22;487;50.126;8.698;2022-08-19T00:06:58;23.30;99.90
997;DHT22;487;50.126;8.698;2022-08-19T00:09:26;23.30;99.90
997;DHT22;487;50.126;8.698;2022-08-19T00:11:55;23.30;99.90
997;DHT22;487;50.126;8.698;2022-08-19T00:14:25;23.20;99.90
997;DHT22;487;50.126;8.698;2022-08-19T00:16:53;23.20;99.90
997;DHT22;487;50.126;8.698;2022-08-19T00:19:22;23.20;99.90
997;DHT22;487;50.126;8.698;2022-08-19T00:21:50;23.20;99.90
997;DHT22;487;50.126;8.698;2022-08-19T00:24:20;23.20;99.90
997;DHT22;487;50.126;8.698;2022-08-19T00:26:49;23.10;99.90
997;DHT22;487;50.126;8.698;2022-08-19T00:29:19;23.10;99.90
997;DHT22;487;50.126;8.698;2022-08-19T00:31:47;23.00;99.90
997;DHT22;487;50.126;8.698;2022-08-19T00:34:16;23.00;99.90
997;DHT22;487;50.126;8.698;2022-08-19T00:36:45;23.00;99.90
997;DHT22;487;50.126;8.698;2022-08-19T00:39:14;23.00;99.90
997;DHT22;487;50.126;8.698;2022-08-19T00:41:44;23.00;99.90
997;DHT22;487;50.126;8.698;2022-08-19T00:44:16;22.90;99.90
997;DHT22;487;50.126;8.698;2022-08-19T00:46:50;22.90;99.90
997;DHT22;487;50.126;8.698;2022-08-19T00:49:26;22.90;99.90
997;DHT22;487;50.126;8.698;2022-08-19T00:51:59;22.90;99.90
997;DHT22;487;50.126;8.698;2022-08-19T00:54:29;22.90;99.90
997;DHT22;487;50.126;8.698;2022-08-19T00:57:00;22.80;99.90
997;DHT22;487;50.126;8.698;2022-08-19T00:59:29;22.90;99.90
997;DHT22;487;50.126;8.698;2022-08-19T01:02:17;22.80;99.90
997;DHT22;487;50.126;8.698;2022-08-19T01:04:46;22.80;99.90
997;DHT22;487;50.126;8.698;2022-08-19T01:07:14;22.80;99.90
997;DHT22;487;50.126;8.698;2022-08-19T01:12:16;22.80;99.90
997;DHT22;487;50.126;8.698;2022-08-19T01:14:45;22.80;99.90
997;DHT22;487;50.126;8.698;2022-08-19T01:17:14;22.70;99.90
997;DHT22;487;50.126;8.698;2022-08-19T01:19:43;22.80;99.90
997;DHT22;487;50.126;8.698;2022-08-19T01:22:19;22.70;99.90
997;DHT22;487;50.126;8.698;2022-08-19T01:25:00;22.70;99.90
997;DHT22;487;50.126;8.698;2022-08-19T01:27:37;22.70;99.90
997;DHT22;487;50.126;8.698;2022-08-19T01:30:11;22.70;99.90
997;DHT22;487;50.126;8.698;2022-08-19T01:32:39;22.70;99.90
997;DHT22;487;50.126;8.698;2022-08-19T01:35:08;22.70;99.90
997;DHT22;487;50.126;8.698;2022-08-19T01:37:48;22.70;99.90
997;DHT22;487;50.126;8.698;2022-08-19T01:40:20;22.70;99.90
997;DHT22;487;50.126;8.698;2022-08-19T01:42:49;22.70;99.90
997;DHT22;487;50.126;8.698;2022-08-19T01:45:18;22.70;99.90
997;DHT22;487;50.126;8.698;2022-08-19T01:47:46;22.70;99.90
997;DHT22;487;50.126;8.698;2022-08-19T01:50:27;22.70;99.90
997;DHT22;487;50.126;8.698;2022-08-19T01:52:55;22.70;99.90
997;DHT22;487;50.126;8.698;2022-08-19T01:55:35;22.70;99.90
997;DHT22;487;50.126;8.698;2022-08-19T01:58:08;22.70;99.90
997;DHT22;487;50.126;8.698;2022-08-19T02:00:38;22.70;99.90
997;DHT22;487;50.126;8.698;2022-08-19T02:03:06;22.70;99.90
997;DHT22;487;50.126;8.698;2022-08-19T02:05:35;22.70;99.90
997;DHT22;487;50.126;8.698;2022-08-19T02:08:03;22.70;99.90
997;DHT22;487;50.126;8.698;2022-08-19T02:10:31;22.80;99.90
997;DHT22;487;50.126;8.698;2022-08-19T02:15:29;22.70;99.90
997;DHT22;487;50.126;8.698;2022-08-19T02:17:58;22.70;99.90
997;DHT22;487;50.126;8.698;2022-08-19T02:20:26;22.70;99.90
997;DHT22;487;50.126;8.698;2022-08-19T02:22:54;22.70;99.90
997;DHT22;487;50.126;8.698;2022-08-19T02:25:22;22.70;99.90
997;DHT22;487;50.126;8.698;2022-08-19T02:27:50;22.70;99.90
997;DHT22;487;50.126;8.698;2022-08-19T02:30:19;22.70;99.90
997;DHT22;487;50.126;8.698;2022-08-19T02:32:47;22.80;99.90
997;DHT22;487;50.126;8.698;2022-08-19T02:35:15;22.80;99.90
997;DHT22;487;50.126;8.698;2022-08-19T02:37:44;22.80;99.90
997;DHT22;487;50.126;8.698;2022-08-19T02:40:30;22.90;99.90
997;DHT22;487;50.126;8.698;2022-08-19T02:45:33;22.90;99.90
997;DHT22;487;50.126;8.698;2022-08-19T02:48:01;22.90;99.90
997;DHT22;487;50.126;8.698;2022-08-19T02:50:38;22.80;99.90
997;DHT22;487;50.126;8.698;2022-08-19T02:53:19;22.80;99.90
997;DHT22;487;50.126;8.698;2022-08-19T02:55:49;22.90;99.90
997;DHT22;487;50.126;8.698;2022-08-19T02:58:18;22.90;99.90
997;DHT22;487;50.126;8.698;2022-08-19T03:00:51;22.90;99.90
997;DHT22;487;50.126;8.698;2022-08-19T03:03:20;22.90;99.90
997;DHT22;487;50.126;8.698;2022-08-19T03:05:48;22.80;99.90
997;DHT22;487;50.126;8.698;2022-08-19T03:08:23;22.80;99.90
997;DHT22;487;50.126;8.698;2022-08-19T03:10:52;22.80;99.90
997;DHT22;487;50.126;8.698;2022-08-19T03:13:20;22.80;99.90
997;DHT22;487;50.126;8.698;2022-08-19T03:15:51;22.80;99.90
997;DHT22;487;50.126;8.698;2022-08-19T03:18:19;22.70;99.90
997;DHT22;487;50.126;8.698;2022-08-19T03:20:51;22.70;99.90
997;DHT22;487;50.126;8.698;2022-08-19T03:23:21;22.70;99.90
997;DHT22;487;50.126;8.698;2022-08-19T03:25:52;22.70;99.90
997;DHT22;487;50.126;8.698;2022-08-19T03:28:40;22.70;99.90
997;DHT22;487;50.126;8.698;2022-08-19T03:31:18;22.70;99.90
997;DHT22;487;50.126;8.698;2022-08-19T03:34:07;22.70;99.90
997;DHT22;487;50.126;8.698;2022-08-19T03:36:35;22.60;99.90
997;DHT22;487;50.126;8.698;2022-08-19T03:39:03;22.60;99.90
997;DHT22;487;50.126;8.698;2022-08-19T03:41:36;22.60;99.90
997;DHT22;487;50.126;8.698;2022-08-19T03:44:12;22.60;99.90
997;DHT22;487;50.126;8.698;2022-08-19T03:46:46;22.60;99.90
997;DHT22;487;50.126;8.698;2022-08-19T03:49:15;22.60;99.90
997;DHT22;487;50.126;8.698;2022-08-19T03:51:45;22.60;99.90
997;DHT22;487;50.126;8.698;2022-08-19T03:54:15;22.60;99.90
997;DHT22;487;50.126;8.698;2022-08-19T03:56:45;22.50;99.90
997;DHT22;487;50.126;8.698;2022-08-19T03:59:16;22.50;99.90
997;DHT22;487;50.126;8.698;2022-08-19T04:01:46;22.50;99.90
997;DHT22;487;50.126;8.698;2022-08-19T04:04:14;22.50;99.90
997;DHT22;487;50.126;8.698;2022-08-19T04:06:45;22.50;99.90
997;DHT22;487;50.126;8.698;2022-08-19T04:09:14;22.40;99.90
997;DHT22;487;50.126;8.698;2022-08-19T04:11:43;22.40;99.90
997;DHT22;487;50.126;8.698;2022-08-19T04:14:15;22.40;99.90
997;DHT22;487;50.126;8.698;2022-08-19T04:16:43;22.40;99.90
997;DHT22;487;50.126;8.698;2022-08-19T04:19:15;22.30;99.90
997;DHT22;487;50.126;8.698;2022-08-19T04:21:45;22.30;99.90
997;DHT22;487;50.126;8.698;2022-08-19T04:24:14;22.30;99.90
997;DHT22;487;50.126;8.698;2022-08-19T04:26:42;22.30;99.90
997;DHT22;487;50.126;8.698;2022-08-19T04:29:12;22.30;99.90
997;DHT22;487;50.126;8.698;2022-08-19T04:31:43;22.30;99.90
997;DHT22;487;50.126;8.698;2022-08-19T04:34:15;22.30;99.90
997;DHT22;487;50.126;8.698;2022-08-19T04:36:44;22.30;99.90
997;DHT22;487;50.126;8.698;2022-08-19T04:39:14;22.30;99.90
997;DHT22;487;50.126;8.698;2022-08-19T04:41:42;22.30;99.90
997;DHT22;487;50.126;8.698;2022-08-19T04:44:29;22.20;99.90
997;DHT22;487;50.126;8.698;2022-08-19T04:46:59;22.20;99.90
997;DHT22;487;50.126;8.698;2022-08-19T04:49:38;22.20;99.90
997;DHT22;487;50.126;8.698;2022-08-19T04:52:05;22.20;99.90
997;DHT22;487;50.126;8.698;2022-08-19T04:54:34;22.20;99.90
997;DHT22;487;50.126;8.698;2022-08-19T04:57:06;22.20;99.90
997;DHT22;487;50.126;8.698;2022-08-19T04:59:37;22.20;99.90
997;DHT22;487;50.126;8.698;2022-08-19T05:04:35;22.20;99.90
997;DHT22;487;50.126;8.698;2022-08-19T05:07:08;22.20;99.90
997;DHT22;487;50.126;8.698;2022-08-19T05:09:36;22.20;99.90
997;DHT22;487;50.126;8.698;2022-08-19T05:17:24;22.20;99.90
997;DHT22;487;50.126;8.698;2022-08-19T05:19:55;22.10;99.90
997;DHT22;487;50.126;8.698;2022-08-19T05:22:43;22.20;99.90
997;DHT22;487;50.126;8.698;2022-08-19T05:25:15;22.20;99.90
997;DHT22;487;50.126;8.698;2022-08-19T05:27:45;22.20;99.90
997;DHT22;487;50.126;8.698;2022-08-19T05:30:13;22.20;99.90
997;DHT22;487;50.126;8.698;2022-08-19T05:32:41;22.20;99.90
997;DHT22;487;50.126;8.698;2022-08-19T05:35:09;22.20;99.90
997;DHT22;487;50.126;8.698;2022-08-19T05:37:38;22.30;99.90
997;DHT22;487;50.126;8.698;2022-08-19T05:40:09;22.30;99.90
997;DHT22;487;50.126;8.698;2022-08-19T05:42:37;22.30;99.90
997;DHT22;487;50.126;8.698;2022-08-19T05:45:07;22.40;99.90
997;DHT22;487;50.126;8.698;2022-08-19T05:47:35;22.50;99.90
997;DHT22;487;50.126;8.698;2022-08-19T05:50:10;22.50;99.90
997;DHT22;487;50.126;8.698;2022-08-19T05:52:38;22.50;99.90
997;DHT22;487;50.126;8.698;2022-08-19T05:55:17;22.50;99.90
997;DHT22;487;50.126;8.698;2022-08-19T05:57:50;22.60;99.90
997;DHT22;487;50.126;8.698;2022-08-19T06:00:18;22.60;99.90
997;DHT22;487;50.126;8.698;2022-08-19T06:02:50;22.60;99.90
997;DHT22;487;50.126;8.698;2022-08-19T06:05:19;22.60;99.90
997;DHT22;487;50.126;8.698;2022-08-19T06:07:46;22.60;99.90
997;DHT22;487;50.126;8.698;2022-08-19T06:10:14;22.70;99.90
997;DHT22;487;50.126;8.698;2022-08-19T06:12:43;22.70;99.90
997;DHT22;487;50.126;8.698;2022-08-19T06:15:13;22.70;99.90
997;DHT22;487;50.126;8.698;2022-08-19T06:17:42;22.70;99.90
997;DHT22;487;50.126;8.698;2022-08-19T06:20:13;22.80;99.90
997;DHT22;487;50.126;8.698;2022-08-19T06:22:44;23.80;99.90
997;DHT22;487;50.126;8.698;2022-08-19T06:25:13;22.80;99.90
997;DHT22;487;50.126;8.698;2022-08-19T06:27:42;22.90;99.90
997;DHT22;487;50.126;8.698;2022-08-19T06:30:31;22.90;99.90
997;DHT22;487;50.126;8.698;2022-08-19T06:32:59;22.90;99.90
997;DHT22;487;50.126;8.698;2022-08-19T06:35:27;22.90;99.90
997;DHT22;487;50.126;8.698;2022-08-19T06:37:55;22.90;99.90
997;DHT22;487;50.126;8.698;2022-08-19T06:40:24;22.90;99.90
997;DHT22;487;50.126;8.698;2022-08-19T06:42:52;22.90;99.90
997;DHT22;487;50.126;8.698;2022-08-19T06:45:21;23.00;99.90
997;DHT22;487;50.126;8.698;2022-08-19T06:48:01;22.90;99.90
997;DHT22;487;50.126;8.698;2022-08-19T06:50:29;23.00;99.90
997;DHT22;487;50.126;8.698;2022-08-19T06:52:57;23.00;99.90
997;DHT22;487;50.126;8.698;2022-08-19T06:55:30;23.00;99.90
997;DHT22;487;50.126;8.698;2022-08-19T06:58:01;23.00;99.90
997;DHT22;487;50.126;8.698;2022-08-19T07:00:30;23.00;99.90
997;DHT22;487;50.126;8.698;2022-08-19T07:02:58;23.00;99.90
997;DHT22;487;50.126;8.698;2022-08-19T07:05:37;22.90;99.90
997;DHT22;487;50.126;8.698;2022-08-19T07:08:05;22.90;99.90
997;DHT22;487;50.126;8.698;2022-08-19T07:10:34;22.80;99.90
997;DHT22;487;50.126;8.698;2022-08-19T07:13:08;22.80;99.90
997;DHT22;487;50.126;8.698;2022-08-19T07:15:36;22.70;99.90
997;DHT22;487;50.126;8.698;2022-08-19T07:18:05;22.80;99.90
997;DHT22;487;50.126;8.698;2022-08-19T07:20:38;22.70;99.90
997;DHT22;487;50.126;8.698;2022-08-19T07:23:08;22.80;99.90
997;DHT22;487;50.126;8.698;2022-08-19T07:25:49;22.80;99.90
997;DHT22;487;50.126;8.698;2022-08-19T07:28:18;22.80;99.90
997;DHT22;487;50.126;8.698;2022-08-19T07:33:18;22.90;99.90
997;DHT22;487;50.126;8.698;2022-08-19T07:35:48;22.90;99.90
997;DHT22;487;50.126;8.698;2022-08-19T07:40:45;23.10;99.90
997;DHT22;487;50.126;8.698;2022-08-19T07:43:13;23.20;99.90
997;DHT22;487;50.126;8.698;2022-08-19T07:45:44;23.20;99.90
997;DHT22;487;50.126;8.698;2022-08-19T07:48:14;23.20;99.90
997;DHT22;487;50.126;8.698;2022-08-19T07:50:42;23.30;99.90
997;DHT22;487;50.126;8.698;2022-08-19T07:53:11;23.40;99.90
997;DHT22;487;50.126;8.698;2022-08-19T07:55:39;23.40;99.90
997;DHT22;487;50.126;8.698;2022-08-19T07:58:12;23.50;99.90
997;DHT22;487;50.126;8.698;2022-08-19T08:00:40;23.60;99.90
997;DHT22;487;50.126;8.698;2022-08-19T08:03:09;23.70;99.90
997;DHT22;487;50.126;8.698;2022-08-19T08:05:37;23.70;99.90
997;DHT22;487;50.126;8.698;2022-08-19T08:08:24;23.70;99.90
997;DHT22;487;50.126;8.698;2022-08-19T08:11:24;24.00;99.90
997;DHT22;487;50.126;8.698;2022-08-19T08:13:55;24.00;99.90
997;DHT22;487;50.126;8.698;2022-08-19T08:19:00;24.20;99.90
997;DHT22;487;50.126;8.698;2022-08-19T08:21:33;24.40;99.90
997;DHT22;487;50.126;8.698;2022-08-19T08:24:03;24.40;99.90
997;DHT22;487;50.126;8.698;2022-08-19T08:26:31;24.40;99.90
997;DHT22;487;50.126;8.698;2022-08-19T08:29:00;24.50;99.90
997;DHT22;487;50.126;8.698;2022-08-19T08:31:38;24.60;99.90
997;DHT22;487;50.126;8.698;2022-08-19T08:34:07;24.70;99.90
997;DHT22;487;50.126;8.698;2022-08-19T08:36:37;24.70;99.90
997;DHT22;487;50.126;8.698;2022-08-19T08:39:09;24.90;99.90
997;DHT22;487;50.126;8.698;2022-08-19T08:41:42;24.90;99.90
997;DHT22;487;50.126;8.698;2022-08-19T08:44:16;25.00;99.90
997;DHT22;487;50.126;8.698;2022-08-19T08:46:49;24.90;99.90
997;DHT22;487;50.126;8.698;2022-08-19T08:49:31;24.90;99.90
997;DHT22;487;50.126;8.698;2022-08-19T08:52:04;24.90;99.90
997;DHT22;487;50.126;8.698;2022-08-19T08:54:37;25.00;99.90
997;DHT22;487;50.126;8.698;2022-08-19T08:57:19;25.00;99.90
997;DHT22;487;50.126;8.698;2022-08-19T08:59:49;25.00;99.90
997;DHT22;487;50.126;8.698;2022-08-19T09:02:18;25.10;99.90
997;DHT22;487;50.126;8.698;2022-08-19T09:04:47;25.10;99.90
997;DHT22;487;50.126;8.698;2022-08-19T09:07:24;25.10;99.90
997;DHT22;487;50.126;8.698;2022-08-19T09:10:10;25.10;99.90
997;DHT22;487;50.126;8.698;2022-08-19T09:12:53;25.10;99.90
997;DHT22;487;50.126;8.698;2022-08-19T09:18:41;25.10;99.90
997;DHT22;487;50.126;8.698;2022-08-19T09:21:10;25.20;99.90
997;DHT22;487;50.126;8.698;2022-08-19T09:23:38;25.20;99.90
997;DHT22;487;50.126;8.698;2022-08-19T09:26:09;25.30;99.90
997;DHT22;487;50.126;8.698;2022-08-19T09:28:44;25.30;99.90
997;DHT22;487;50.126;8.698;2022-08-19T09:31:17;25.40;99.90
997;DHT22;487;50.126;8.698;2022-08-19T09:33:46;25.40;99.90
997;DHT22;487;50.126;8.698;2022-08-19T09:36:20;25.50;99.90
997;DHT22;487;50.126;8.698;2022-08-19T09:39:00;25.50;99.90
997;DHT22;487;50.126;8.698;2022-08-19T09:41:30;25.70;99.90
997;DHT22;487;50.126;8.698;2022-08-19T09:43:59;25.70;99.90
997;DHT22;487;50.126;8.698;2022-08-19T09:46:29;25.70;99.90
997;DHT22;487;50.126;8.698;2022-08-19T09:48:59;25.60;99.90
997;DHT22;487;50.126;8.698;2022-08-19T09:51:32;25.60;99.90
997;DHT22;487;50.126;8.698;2022-08-19T09:54:03;25.70;99.90
997;DHT22;487;50.126;8.698;2022-08-19T09:56:32;25.70;99.90
997;DHT22;487;50.126;8.698;2022-08-19T09:59:02;25.90;99.90
997;DHT22;487;50.126;8.698;2022-08-19T10:01:32;26.00;99.90
997;DHT22;487;50.126;8.698;2022-08-19T10:06:46;26.10;99.90
997;DHT22;487;50.126;8.698;2022-08-19T10:12:04;26.20;99.90
997;DHT22;487;50.126;8.698;2022-08-19T10:17:06;26.10;99.90
997;DHT22;487;50.126;8.698;2022-08-19T10:24:51;26.10;99.90
997;DHT22;487;50.126;8.698;2022-08-19T10:27:21;26.10;99.90
997;DHT22;487;50.126;8.698;2022-08-19T10:29:52;27.10;99.90
997;DHT22;487;50.126;8.698;2022-08-19T10:32:20;26.10;99.90
997;DHT22;487;50.126;8.698;2022-08-19T10:35:00;26.20;99.90
997;DHT22;487;50.126;8.698;2022-08-19T10:37:31;26.30;99.90
997;DHT22;487;50.126;8.698;2022-08-19T10:40:01;26.50;99.90
997;DHT22;487;50.126;8.698;2022-08-19T10:42:31;26.50;99.90
997;DHT22;487;50.126;8.698;2022-08-19T10:44:59;26.70;99.90
997;DHT22;487;50.126;8.698;2022-08-19T10:47:30;26.80;99.90
997;DHT22;487;50.126;8.698;2022-08-19T10:49:58;26.90;99.90
997;DHT22;487;50.126;8.698;2022-08-19T10:52:46;27.00;99.90
997;DHT22;487;50.126;8.698;2022-08-19T10:55:17;26.90;99.90
997;DHT22;487;50.126;8.698;2022-08-19T10:58:10;27.00;99.90
997;DHT22;487;50.126;8.698;2022-08-19T11:00:39;27.10;99.90
997;DHT22;487;50.126;8.698;2022-08-19T11:03:07;27.20;99.90
997;DHT22;487;50.126;8.698;2022-08-19T11:05:35;27.20;99.90
997;DHT22;487;50.126;8.698;2022-08-19T11:08:06;27.30;99.90
997;DHT22;487;50.126;8.698;2022-08-19T11:10:50;27.50;99.90
997;DHT22;487;50.126;8.698;2022-08-19T11:13:21;27.60;99.90
997;DHT22;487;50.126;8.698;2022-08-19T11:15:56;27.50;99.90
997;DHT22;487;50.126;8.698;2022-08-19T11:18:29;27.20;99.90
997;DHT22;487;50.126;8.698;2022-08-19T11:21:05;27.20;99.90
997;DHT22;487;50.126;8.698;2022-08-19T11:23:33;27.20;99.90
997;DHT22;487;50.126;8.698;2022-08-19T11:26:01;27.20;99.90
997;DHT22;487;50.126;8.698;2022-08-19T11:28:30;27.30;99.90
997;DHT22;487;50.126;8.698;2022-08-19T11:30:58;27.40;99.90
997;DHT22;487;50.126;8.698;2022-08-19T11:33:26;27.70;99.90
997;DHT22;487;50.126;8.698;2022-08-19T11:35:56;27.80;99.90
997;DHT22;487;50.126;8.698;2022-08-19T11:38:24;28.00;99.90
997;DHT22;487;50.126;8.698;2022-08-19T11:40:56;28.00;99.90
997;DHT22;487;50.126;8.698;2022-08-19T11:43:25;27.80;99.90
997;DHT22;487;50.126;8.698;2022-08-19T11:45:55;27.80;99.90
997;DHT22;487;50.126;8.698;2022-08-19T11:48:23;27.80;99.90
997;DHT22;487;50.126;8.698;2022-08-19T11:50:53;27.80;99.90
997;DHT22;487;50.126;8.698;2022-08-19T11:53:22;27.80;99.90
997;DHT22;487;50.126;8.698;2022-08-19T11:55:53;27.90;99.90
997;DHT22;487;50.126;8.698;2022-08-19T11:58:23;27.90;99.90
997;DHT22;487;50.126;8.698;2022-08-19T12:00:51;28.00;99.90
997;DHT22;487;50.126;8.698;2022-08-19T12:05:49;27.90;99.90
997;DHT22;487;50.126;8.698;2022-08-19T12:08:17;27.60;99.90
997;DHT22;487;50.126;8.698;2022-08-19T12:10:45;27.60;99.90
997;DHT22;487;50.126;8.698;2022-08-19T12:13:14;27.40;99.90
997;DHT22;487;50.126;8.698;2022-08-19T12:15:46;27.40;99.90
997;DHT22;487;50.126;8.698;2022-08-19T12:18:14;27.50;99.90
997;DHT22;487;50.126;8.698;2022-08-19T12:20:44;27.70;99.90
997;DHT22;487;50.126;8.698;2022-08-19T12:23:12;27.90;99.90
997;DHT22;487;50.126;8.698;2022-08-19T12:25:44;28.00;99.90
997;DHT22;487;50.126;8.698;2022-08-19T12:28:19;28.00;99.90
997;DHT22;487;50.126;8.698;2022-08-19T12:30:49;28.00;99.90
997;DHT22;487;50.126;8.698;2022-08-19T12:33:18;27.70;99.90
997;DHT22;487;50.126;8.698;2022-08-19T12:35:47;27.70;99.90
997;DHT22;487;50.126;8.698;2022-08-19T12:38:15;27.70;99.90
997;DHT22;487;50.126;8.698;2022-08-19T12:40:46;27.80;99.90
997;DHT22;487;50.126;8.698;2022-08-19T12:43:15;28.20;99.90
997;DHT22;487;50.126;8.698;2022-08-19T12:45:43;28.30;99.90
997;DHT22;487;50.126;8.698;2022-08-19T12:48:13;28.20;99.90
997;DHT22;487;50.126;8.698;2022-08-19T12:51:06;28.20;99.90
997;DHT22;487;50.126;8.698;2022-08-19T12:53:34;28.10;99.90
997;DHT22;487;50.126;8.698;2022-08-19T12:56:05;28.10;99.90
997;DHT22;487;50.126;8.698;2022-08-19T12:58:38;28.10;99.90
997;DHT22;487;50.126;8.698;2022-08-19T13:01:15;28.30;99.90
997;DHT22;487;50.126;8.698;2022-08-19T13:03:48;28.50;99.90
997;DHT22;487;50.126;8.698;2022-08-19T13:06:18;28.50;99.90
997;DHT22;487;50.126;8.698;2022-08-19T13:08:46;28.50;99.90
997;DHT22;487;50.126;8.698;2022-08-19T13:11:15;28.30;99.90
997;DHT22;487;50.126;8.698;2022-08-19T13:13:46;28.20;99.90
997;DHT22;487;50.126;8.698;2022-08-19T13:18:44;28.10;99.90
997;DHT22;487;50.126;8.698;2022-08-19T13:21:13;28.00;99.90
997;DHT22;487;50.126;8.698;2022-08-19T13:23:43;28.00;99.90
997;DHT22;487;50.126;8.698;2022-08-19T13:26:12;28.00;99.90
997;DHT22;487;50.126;8.698;2022-08-19T13:28:40;28.00;99.90
997;DHT22;487;50.126;8.698;2022-08-19T13:31:29;28.10;99.90
997;DHT22;487;50.126;8.698;2022-08-19T13:34:16;28.30;99.90
997;DHT22;487;50.126;8.698;2022-08-19T13:36:45;28.50;99.90
997;DHT22;487;50.126;8.698;2022-08-19T13:39:15;28.80;99.90
997;DHT22;487;50.126;8.698;2022-08-19T13:41:44;28.90;99.90
997;DHT22;487;50.126;8.698;2022-08-19T13:44:14;29.00;99.90
997;DHT22;487;50.126;8.698;2022-08-19T13:46:45;29.00;99.90
997;DHT22;487;50.126;8.698;2022-08-19T13:49:13;29.00;99.90
997;DHT22;487;50.126;8.698;2022-08-19T13:51:42;28.90;99.90
997;DHT22;487;50.126;8.698;2022-08-19T13:54:11;28.80;99.90
997;DHT22;487;50.126;8.698;2022-08-19T13:56:43;28.70;99.90
997;DHT22;487;50.126;8.698;2022-08-19T13:59:12;28.70;99.90
997;DHT22;487;50.126;8.698;2022-08-19T14:01:40;28.60;99.90
997;DHT22;487;50.126;8.698;2022-08-19T14:04:09;28.60;99.90
997;DHT22;487;50.126;8.698;2022-08-19T14:06:37;28.70;99.90
997;DHT22;487;50.126;8.698;2022-08-19T14:09:04;28.80;99.90
997;DHT22;487;50.126;8.698;2022-08-19T14:11:34;28.90;99.90
997;DHT22;487;50.126;8.698;2022-08-19T14:14:03;29.10;99.90
997;DHT22;487;50.126;8.698;2022-08-19T14:16:31;29.20;99.90
997;DHT22;487;50.126;8.698;2022-08-19T14:18:59;29.30;99.90
997;DHT22;487;50.126;8.698;2022-08-19T14:21:27;29.30;99.90
997;DHT22;487;50.126;8.698;2022-08-19T14:23:55;29.20;99.90
997;DHT22;487;50.126;8.698;2022-08-19T14:26:23;29.10;99.90
997;DHT22;487;50.126;8.698;2022-08-19T14:28:51;29.10;99.90
997;DHT22;487;50.126;8.698;2022-08-19T14:31:20;29.00;99.90
997;DHT22;487;50.126;8.698;2022-08-19T14:33:55;29.00;99.90
997;DHT22;487;50.126;8.698;2022-08-19T14:36:23;29.10;99.90
997;DHT22;487;50.126;8.698;2022-08-19T14:38:51;29.20;99.90
997;DHT22;487;50.126;8.698;2022-08-19T14:41:22;29.20;99.90
997;DHT22;487;50.126;8.698;2022-08-19T14:43:51;29.10;99.90
997;DHT22;487;50.126;8.698;2022-08-19T14:46:23;29.00;99.90
997;DHT22;487;50.126;8.698;2022-08-19T14:48:54;28.90;99.90
997;DHT22;487;50.126;8.698;2022-08-19T14:51:24;28.80;99.90
997;DHT22;487;50.126;8.698;2022-08-19T14:53:53;28.70;99.90
997;DHT22;487;50.126;8.698;2022-08-19T14:56:23;28.90;99.90
997;DHT22;487;50.126;8.698;2022-08-19T14:58:52;28.90;99.90
997;DHT22;487;50.126;8.698;2022-08-19T15:01:22;28.90;99.90
997;DHT22;487;50.126;8.698;2022-08-19T15:03:52;29.20;99.90
997;DHT22;487;50.126;8.698;2022-08-19T15:06:20;29.20;99.90
997;DHT22;487;50.126;8.698;2022-08-19T15:08:49;29.40;99.90
997;DHT22;487;50.126;8.698;2022-08-19T15:11:19;29.60;99.90
997;DHT22;487;50.126;8.698;2022-08-19T15:13:49;29.70;99.90
997;DHT22;487;50.126;8.698;2022-08-19T15:16:18;29.70;99.90
997;DHT22;487;50.126;8.698;2022-08-19T15:18:49;29.70;99.90
997;DHT22;487;50.126;8.698;2022-08-19T15:21:18;29.60;99.90
997;DHT22;487;50.126;8.698;2022-08-19T15:23:54;29.50;99.90
997;DHT22;487;50.126;8.698;2022-08-19T15:26:22;29.40;99.90
997;DHT22;487;50.126;8.698;2022-08-19T15:28:51;29.40;99.90
997;DHT22;487;50.126;8.698;2022-08-19T15:31:20;29.40;99.90
997;DHT22;487;50.126;8.698;2022-08-19T15:33:56;29.40;99.90
997;DHT22;487;50.126;8.698;2022-08-19T15:36:25;29.50;99.90
997;DHT22;487;50.126;8.698;2022-08-19T15:38:54;29.60;99.90
997;DHT22;487;50.126;8.698;2022-08-19T15:41:24;29.70;99.90
997;DHT22;487;50.126;8.698;2022-08-19T15:43:55;31.00;99.90
997;DHT22;487;50.126;8.698;2022-08-19T15:46:26;29.80;99.90
997;DHT22;487;50.126;8.698;2022-08-19T15:48:56;29.80;99.90
997;DHT22;487;50.126;8.698;2022-08-19T15:51:27;29.90;99.90
997;DHT22;487;50.126;8.698;2022-08-19T15:53:57;29.90;99.90
997;DHT22;487;50.126;8.698;2022-08-19T15:56:25;30.00;99.90
997;DHT22;487;50.126;8.698;2022-08-19T15:59:24;30.00;99.90
997;DHT22;487;50.126;8.698;2022-08-19T16:02:13;30.00;99.90
997;DHT22;487;50.126;8.698;2022-08-19T16:05:00;30.00;99.90
997;DHT22;487;50.126;8.698;2022-08-19T16:07:46;30.00;99.90
997;DHT22;487;50.126;8.698;2022-08-19T16:10:14;30.10;99.90
997;DHT22;487;50.126;8.698;2022-08-19T16:12:54;30.10;99.90
997;DHT22;487;50.126;8.698;2022-08-19T16:15:23;30.10;99.90
997;DHT22;487;50.126;8.698;2022-08-19T16:17:51;30.00;99.90
997;DHT22;487;50.126;8.698;2022-08-19T16:20:25;30.10;99.90
997;DHT22;487;50.126;8.698;2022-08-19T16:22:54;30.10;99.90
997;DHT22;487;50.126;8.698;2022-08-19T16:25:22;30.10;99.90
997;DHT22;487;50.126;8.698;2022-08-19T16:27:53;30.10;99.90
997;DHT22;487;50.126;8.698;2022-08-19T16:30:34;30.10;99.90
997;DHT22;487;50.126;8.698;2022-08-19T16:33:02;30.10;99.90
997;DHT22;487;50.126;8.698;2022-08-19T16:35:31;30.10;99.90
997;DHT22;487;50.126;8.698;2022-08-19T16:37:59;30.20;99.90
997;DHT22;487;50.126;8.698;2022-08-19T16:40:28;30.20;99.90
997;DHT22;487;50.126;8.698;2022-08-19T16:42:56;30.20;99.90
997;DHT22;487;50.126;8.698;2022-08-19T16:45:24;30.20;99.90
997;DHT22;487;50.126;8.698;2022-08-19T16:47:52;30.20;99.90
997;DHT22;487;50.126;8.698;2022-08-19T16:50:21;30.20;99.90
997;DHT22;487;50.126;8.698;2022-08-19T16:53:10;30.20;99.90
997;DHT22;487;50.126;8.698;2022-08-19T16:55:38;30.20;99.90
997;DHT22;487;50.126;8.698;2022-08-19T16:58:06;30.30;99.90
997;DHT22;487;50.126;8.698;2022-08-19T17:00:34;30.40;99.90
997;DHT22;487;50.126;8.698;2022-08-19T17:03:06;30.70;99.90
997;DHT22;487;50.126;8.698;2022-08-19T17:05:41;30.70;99.90
997;DHT22;487;50.126;8.698;2022-08-19T17:08:11;30.90;99.90
997;DHT22;487;50.126;8.698;2022-08-19T17:10:39;31.10;99.90
997;DHT22;487;50.126;8.698;2022-08-19T17:13:24;31.60;99.90
997;DHT22;487;50.126;8.698;2022-08-19T17:15:52;32.00;99.90
997;DHT22;487;50.126;8.698;2022-08-19T17:18:21;32.10;99.90
997;DHT22;487;50.126;8.698;2022-08-19T17:20:50;32.30;99.90
997;DHT22;487;50.126;8.698;2022-08-19T17:23:23;32.40;99.90
997;DHT22;487;50.126;8.698;2022-08-19T17:26:09;32.50;99.90
997;DHT22;487;50.126;8.698;2022-08-19T17:28:44;32.50;99.90
997;DHT22;487;50.126;8.698;2022-08-19T17:31:13;32.60;99.90
997;DHT22;487;50.126;8.698;2022-08-19T17:33:42;33.00;99.90
997;DHT22;487;50.126;8.698;2022-08-19T17:36:14;33.00;99.90
997;DHT22;487;50.126;8.698;2022-08-19T17:38:44;33.30;99.90
997;DHT22;487;50.126;8.698;2022-08-19T17:41:12;33.70;99.90
997;DHT22;487;50.126;8.698;2022-08-19T17:43:40;34.50;99.90
997;DHT22;487;50.126;8.698;2022-08-19T17:46:10;34.50;99.90